Time;durP1;ratioP1;P1;durP2;ratioP2;P2;SDS_P1;SDS_P2;PMS_P1;PMS_P2;Temp;Humidity;BMP_temperature;BMP_pressure;BME280_temperature;BME280_humidity;BME280_pressure;Samples;Min_cycle;Max_cycle;Signal;HPM_P1;HPM_P2
2022/04/07 00:00:52;;;;;;;1.27;0.73;;;21.50;45.30;;;;;;4976586;28;20096;-62
2022/04/07 00:03:18;;;;;;;1.25;0.73;;;21.40;45.20;;;;;;4994322;28;20061;-63
2022/04/07 00:05:43;;;;;;;2.10;0.77;;;21.40;45.30;;;;;;5000633;28;20064;-63
2022/04/07 00:08:10;;;;;;;1.58;0.90;;;21.40;45.30;;;;;;4990807;28;20042;-63
2022/04/07 00:10:35;;;;;;;2.08;0.80;;;21.40;45.40;;;;;;4993922;28;20128;-63
2022/04/07 00:13:01;;;;;;;1.77;0.80;;;21.40;45.30;;;;;;4995342;28;20442;-62
2022/04/07 00:15:27;;;;;;;1.15;0.70;;;21.40;45.40;;;;;;4993827;28;20054;-66
2022/04/07 00:17:52;;;;;;;1.00;0.80;;;21.40;45.40;;;;;;4996169;28;20068;-62
2022/04/07 00:20:19;;;;;;;2.05;0.88;;;21.40;45.40;;;;;;4992621;28;20557;-64
2022/04/07 00:22:45;;;;;;;1.40;0.90;;;21.40;45.40;;;;;;4994503;28;20132;-63
2022/04/07 00:25:10;;;;;;;0.98;0.85;;;21.40;46.20;;;;;;4993188;28;20286;-62
2022/04/07 00:27:36;;;;;;;1.33;0.70;;;21.30;45.40;;;;;;4993676;28;20042;-62
2022/04/07 00:30:03;;;;;;;2.58;0.90;;;21.30;45.50;;;;;;4996801;28;20101;-62
2022/04/07 00:32:29;;;;;;;1.50;0.98;;;21.30;45.50;;;;;;4996282;28;20121;-63
2022/04/07 00:34:54;;;;;;;1.50;0.95;;;21.30;45.50;;;;;;4994902;28;20053;-62
2022/04/07 00:37:24;;;;;;;2.47;1.10;;;21.30;45.50;;;;;;4992855;28;20043;-63
2022/04/07 00:39:51;;;;;;;0.88;0.80;;;21.30;45.60;;;;;;4991916;28;20581;-62
2022/04/07 00:42:17;;;;;;;1.45;0.90;;;21.30;45.60;;;;;;4992641;28;20061;-62
2022/04/07 00:44:43;;;;;;;1.35;1.00;;;21.30;45.60;;;;;;4993642;28;20058;-62
2022/04/07 00:47:12;;;;;;;1.33;0.80;;;21.20;45.60;;;;;;4993419;28;20556;-62
2022/04/07 00:49:37;;;;;;;2.00;0.90;;;21.20;45.50;;;;;;4993357;28;20042;-63
2022/04/07 00:52:04;;;;;;;0.73;0.73;;;21.20;45.60;;;;;;4992281;28;20104;-62
2022/04/07 00:54:30;;;;;;;0.95;0.80;;;21.20;45.60;;;;;;4992741;28;20410;-63
2022/04/07 00:56:59;;;;;;;0.85;0.70;;;21.20;45.60;;;;;;4992793;28;20072;-63
2022/04/07 00:59:24;;;;;;;1.40;0.80;;;21.20;45.60;;;;;;4997492;28;20045;-64
2022/04/07 01:01:50;;;;;;;1.67;0.80;;;21.20;45.70;;;;;;4992604;28;20061;-62
2022/04/07 01:04:16;;;;;;;1.40;0.98;;;21.20;45.70;;;;;;4992211;28;20124;-62
2022/04/07 01:06:43;;;;;;;1.10;0.90;;;21.10;45.60;;;;;;4991780;28;20429;-63
2022/04/07 01:09:11;;;;;;;1.67;0.80;;;21.10;45.60;;;;;;4995027;28;20207;-62
2022/04/07 01:11:40;;;;;;;2.00;0.73;;;21.10;45.60;;;;;;4993635;28;20077;-62
2022/04/07 01:14:05;;;;;;;2.47;0.93;;;21.10;45.80;;;;;;4992833;28;20045;-63
2022/04/07 01:16:31;;;;;;;2.92;0.90;;;21.10;45.70;;;;;;4992334;28;20046;-62
2022/04/07 01:18:59;;;;;;;1.52;0.90;;;21.10;45.70;;;;;;4996367;28;20460;-62
2022/04/07 01:21:26;;;;;;;1.13;0.75;;;21.10;45.70;;;;;;4993406;28;20145;-64
2022/04/07 01:24:06;;;;;;;1.35;0.70;;;21.10;45.70;;;;;;4993909;28;20046;-62
2022/04/07 01:26:39;;;;;;;1.00;0.60;;;21.10;45.70;;;;;;4991832;28;20486;-63
2022/04/07 01:29:07;;;;;;;1.75;0.90;;;21.10;45.80;;;;;;4996681;28;20057;-62
2022/04/07 01:31:32;;;;;;;1.23;0.70;;;21.10;45.80;;;;;;4992462;28;20050;-62
2022/04/07 01:33:59;;;;;;;1.38;0.77;;;21.10;45.80;;;;;;4994110;28;20046;-63
2022/04/07 01:36:28;;;;;;;1.92;0.88;;;21.00;45.70;;;;;;4978773;28;20049;-64
2022/04/07 01:38:55;;;;;;;4.18;0.90;;;21.00;45.70;;;;;;4993871;28;20152;-62
2022/04/07 01:41:21;;;;;;;1.50;0.80;;;21.00;45.70;;;;;;4992366;28;20077;-63
2022/04/07 01:43:49;;;;;;;1.52;0.80;;;21.00;45.60;;;;;;4994753;28;20089;-63
2022/04/07 01:46:15;;;;;;;2.22;0.70;;;21.00;45.70;;;;;;4990695;28;20802;-62
2022/04/07 01:48:43;;;;;;;2.38;1.02;;;21.00;45.70;;;;;;4982431;28;20129;-64
2022/04/07 01:51:10;;;;;;;1.13;0.70;;;21.00;45.70;;;;;;4994508;28;20054;-63
2022/04/07 01:53:37;;;;;;;1.35;0.80;;;21.00;45.70;;;;;;4991401;28;20059;-63
2022/04/07 01:56:04;;;;;;;0.60;0.60;;;21.00;45.70;;;;;;4991767;28;20050;-63
2022/04/07 01:58:30;;;;;;;1.45;0.70;;;20.90;45.70;;;;;;4990404;28;20093;-63
2022/04/07 02:00:56;;;;;;;1.48;0.82;;;21.00;45.70;;;;;;4987696;28;20152;-63
2022/04/07 02:03:21;;;;;;;1.88;0.80;;;20.90;45.60;;;;;;4988449;28;20053;-62
2022/04/07 02:05:47;;;;;;;2.03;0.90;;;20.90;46.30;;;;;;4988227;28;20084;-63
2022/04/07 02:08:14;;;;;;;1.45;0.77;;;20.90;45.60;;;;;;4995278;28;20088;-62
2022/04/07 02:10:39;;;;;;;2.45;1.10;;;21.00;45.70;;;;;;4992755;28;20045;-63
2022/04/07 02:13:05;;;;;;;1.60;0.90;;;20.90;46.40;;;;;;4993568;28;20057;-63
2022/04/07 02:15:31;;;;;;;2.53;0.90;;;20.90;45.60;;;;;;4993533;28;20050;-63
2022/04/07 02:17:56;;;;;;;1.80;0.90;;;20.90;45.70;;;;;;4995939;28;20566;-61
2022/04/07 02:20:22;;;;;;;2.65;0.93;;;20.90;45.70;;;;;;4989166;28;20502;-61
2022/04/07 02:22:48;;;;;;;1.25;0.98;;;20.90;45.70;;;;;;4991603;28;20062;-62
2022/04/07 02:25:13;;;;;;;2.30;1.00;;;20.90;45.70;;;;;;4997550;28;20060;-62
2022/04/07 02:27:41;;;;;;;2.00;0.70;;;20.80;45.70;;;;;;4993433;28;20050;-62
2022/04/07 02:30:12;;;;;;;2.88;1.05;;;20.80;45.70;;;;;;4990076;28;20105;-63
2022/04/07 02:32:38;;;;;;;;;;;20.90;45.70;;;;;;4994776;28;20044;-62
2022/04/07 02:35:04;;;;;;;1.30;0.90;;;20.80;45.60;;;;;;4991644;28;19925;-62
2022/04/07 02:37:30;;;;;;;1.85;1.05;;;20.80;45.70;;;;;;4991095;28;20046;-61
2022/04/07 02:39:56;;;;;;;2.25;0.90;;;20.80;45.70;;;;;;4991434;28;20094;-61
2022/04/07 02:42:22;;;;;;;3.53;0.90;;;20.80;45.70;;;;;;4993147;28;20188;-61
2022/04/07 02:44:47;;;;;;;2.67;1.20;;;20.80;45.70;;;;;;4995356;28;20129;-62
2022/04/07 02:47:13;;;;;;;1.45;0.88;;;20.80;45.70;;;;;;4998173;28;20486;-63
2022/04/07 02:49:42;;;;;;;2.33;1.30;;;20.80;45.70;;;;;;4996986;28;20422;-61
2022/04/07 02:52:09;;;;;;;2.83;1.08;;;20.80;45.60;;;;;;4994489;28;20096;-63
2022/04/07 02:54:35;;;;;;;3.70;1.10;;;20.80;45.70;;;;;;4991430;28;20498;-62
2022/04/07 02:57:01;;;;;;;2.13;1.00;;;20.80;45.70;;;;;;4996958;28;20379;-62
2022/04/07 02:59:26;;;;;;;2.22;0.82;;;20.80;45.70;;;;;;4993727;28;20111;-64
2022/04/07 03:01:53;;;;;;;2.63;1.10;;;20.80;45.70;;;;;;4995986;28;20049;-61
2022/04/07 03:04:19;;;;;;;2.72;1.13;;;20.80;45.70;;;;;;4995530;28;20129;-60
2022/04/07 03:06:45;;;;;;;2.55;1.05;;;20.80;45.70;;;;;;4996565;28;20077;-63
2022/04/07 03:09:11;;;;;;;2.00;1.00;;;20.80;45.70;;;;;;4997596;28;20062;-62
2022/04/07 03:11:36;;;;;;;3.72;1.10;;;20.70;45.80;;;;;;4979047;28;20045;-62
2022/04/07 03:14:02;;;;;;;2.15;0.90;;;20.80;45.80;;;;;;4995858;28;20056;-62
2022/04/07 03:16:27;;;;;;;1.98;0.88;;;20.70;45.80;;;;;;4999792;28;20274;-62
2022/04/07 03:18:53;;;;;;;2.58;1.10;;;20.70;45.80;;;;;;4994951;28;20105;-62
2022/04/07 03:21:19;;;;;;;2.22;0.85;;;20.70;45.80;;;;;;4994769;28;20057;-60
2022/04/07 03:23:44;;;;;;;3.15;1.10;;;20.70;45.80;;;;;;4991607;28;20414;-62
2022/04/07 03:26:10;;;;;;;1.70;0.85;;;20.70;45.90;;;;;;4995089;28;20054;-62
2022/04/07 03:28:36;;;;;;;1.27;0.90;;;20.70;45.90;;;;;;4995989;28;20128;-62
2022/04/07 03:31:02;;;;;;;4.38;1.55;;;20.70;45.90;;;;;;4993365;28;20058;-62
2022/04/07 03:33:27;;;;;;;2.95;1.00;;;20.70;45.90;;;;;;4994289;28;20068;-63
2022/04/07 03:35:53;;;;;;;2.40;1.00;;;20.70;46.00;;;;;;4993043;28;20057;-63
2022/04/07 03:38:19;;;;;;;2.75;0.98;;;20.70;46.00;;;;;;4994977;28;20050;-62
2022/04/07 03:40:44;;;;;;;4.20;1.25;;;20.70;46.10;;;;;;4979292;28;20050;-63
2022/04/07 03:43:10;;;;;;;3.28;1.10;;;20.70;46.00;;;;;;4994687;28;20131;-62
2022/04/07 03:45:36;;;;;;;3.83;1.10;;;20.60;46.00;;;;;;4996112;28;20062;-63
2022/04/07 03:48:01;;;;;;;2.75;1.08;;;20.60;46.00;;;;;;4995459;28;20080;-62
2022/04/07 03:50:27;;;;;;;2.70;1.02;;;20.60;46.00;;;;;;4996180;28;20104;-63
2022/04/07 03:52:53;;;;;;;3.55;1.55;;;20.60;46.00;;;;;;4997123;28;20049;-62
2022/04/07 03:55:20;;;;;;;2.63;1.10;;;20.60;45.90;;;;;;4977682;28;20049;-63
2022/04/07 03:57:45;;;;;;;3.30;1.33;;;20.60;46.00;;;;;;4995137;28;20048;-63
2022/04/07 04:00:11;;;;;;;3.45;1.30;;;20.60;46.00;;;;;;4991928;28;20061;-62
2022/04/07 04:02:37;;;;;;;3.03;1.30;;;20.60;46.00;;;;;;4976040;28;20072;-62
2022/04/07 04:05:03;;;;;;;3.40;1.17;;;20.60;46.70;;;;;;4993772;28;20042;-63
2022/04/07 04:07:29;;;;;;;5.88;1.33;;;20.60;46.00;;;;;;5006118;28;20050;-62
2022/04/07 04:09:54;;;;;;;2.38;1.23;;;20.60;46.00;;;;;;4993239;28;20056;-62
2022/04/07 04:12:20;;;;;;;2.53;1.30;;;20.60;46.10;;;;;;4994363;28;20125;-63
2022/04/07 04:14:45;;;;;;;4.13;1.27;;;20.60;46.00;;;;;;4993913;28;20057;-64
2022/04/07 04:17:11;;;;;;;4.57;1.40;;;20.50;45.90;;;;;;4992656;28;20114;-63
2022/04/07 04:19:36;;;;;;;5.45;1.90;;;20.60;46.00;;;;;;4979184;28;20169;-63
2022/04/07 04:22:02;;;;;;;3.33;1.52;;;20.50;45.90;;;;;;4989325;28;20088;-62
2022/04/07 04:24:27;;;;;;;4.47;1.30;;;20.60;46.00;;;;;;4993658;28;20107;-63
2022/04/07 04:26:53;;;;;;;3.88;1.48;;;20.50;45.90;;;;;;4994334;28;20054;-63
2022/04/07 04:29:18;;;;;;;3.65;1.50;;;20.50;45.90;;;;;;4995974;28;20049;-62
2022/04/07 04:31:44;;;;;;;3.83;1.48;;;20.50;45.90;;;;;;4993297;28;20050;-61
2022/04/07 04:34:10;;;;;;;3.72;1.30;;;20.50;45.90;;;;;;4995148;28;20053;-61
2022/04/07 04:36:35;;;;;;;3.95;1.45;;;20.60;46.00;;;;;;4992859;28;20140;-65
2022/04/07 04:39:01;;;;;;;4.28;1.42;;;20.50;45.90;;;;;;4993277;28;20140;-62
2022/04/07 04:41:27;;;;;;;3.33;1.30;;;20.50;45.90;;;;;;4994119;28;20050;-61
2022/04/07 04:43:54;;;;;;;4.78;1.33;;;20.50;45.90;;;;;;4995785;28;20065;-62
2022/04/07 04:46:20;;;;;;;2.58;1.08;;;20.50;46.00;;;;;;4993196;28;20047;-62
2022/04/07 04:48:45;;;;;;;3.70;1.58;;;20.60;46.10;;;;;;4994004;28;20057;-61
2022/04/07 04:51:11;;;;;;;2.88;1.50;;;20.50;46.50;;;;;;4994884;28;20153;-61
2022/04/07 04:53:36;;;;;;;4.18;1.65;;;20.50;46.70;;;;;;4996744;28;20105;-62
2022/04/07 04:56:02;;;;;;;5.90;1.50;;;20.60;46.80;;;;;;4991941;28;20047;-61
2022/04/07 04:58:27;;;;;;;5.45;1.80;;;20.60;47.00;;;;;;4990537;28;20588;-62
2022/04/07 05:00:53;;;;;;;4.20;1.85;;;20.60;47.10;;;;;;4989085;28;20049;-61
2022/04/07 05:03:19;;;;;;;5.90;1.50;;;20.60;47.20;;;;;;4992246;28;20046;-63
2022/04/07 05:05:44;;;;;;;4.95;1.65;;;20.60;47.30;;;;;;4995960;28;20061;-62
2022/04/07 05:08:10;;;;;;;4.25;1.48;;;20.60;47.40;;;;;;4993102;28;20080;-62
2022/04/07 05:10:36;;;;;;;3.80;1.42;;;20.60;47.60;;;;;;4995409;28;20056;-62
2022/04/07 05:13:02;;;;;;;2.47;1.17;;;20.60;47.70;;;;;;4994246;28;20450;-61
2022/04/07 05:15:28;;;;;;;3.97;1.10;;;20.60;47.80;;;;;;4993306;28;20176;-62
2022/04/07 05:17:54;;;;;;;3.38;1.30;;;20.50;48.50;;;;;;4994758;28;20046;-62
2022/04/07 05:20:21;;;;;;;3.38;1.52;;;20.50;47.80;;;;;;4991273;28;20054;-62
2022/04/07 05:22:47;;;;;;;6.07;1.75;;;20.50;47.80;;;;;;4991235;28;20057;-61
2022/04/07 05:25:13;;;;;;;3.83;1.42;;;20.50;47.80;;;;;;4996922;28;20042;-63
2022/04/07 05:27:39;;;;;;;3.95;1.40;;;20.50;47.80;;;;;;4994083;28;20050;-62
2022/04/07 05:30:13;;;;;;;4.88;1.30;;;20.50;47.70;;;;;;4991310;28;20475;-61
2022/04/07 05:32:39;;;;;;;3.78;1.20;;;20.50;47.60;;;;;;4990879;28;20050;-62
2022/04/07 05:35:06;;;;;;;4.35;1.25;;;20.50;47.60;;;;;;4994923;28;20048;-62
2022/04/07 05:37:31;;;;;;;3.03;1.30;;;20.50;47.60;;;;;;4992111;28;20041;-62
2022/04/07 05:39:57;;;;;;;3.22;1.08;;;20.50;47.60;;;;;;4993220;28;20111;-61
2022/04/07 05:42:23;;;;;;;2.45;1.10;;;20.40;47.50;;;;;;4991911;28;20050;-61
2022/04/07 05:44:48;;;;;;;2.97;1.13;;;20.40;47.50;;;;;;4990806;28;20058;-61
2022/04/07 05:47:14;;;;;;;4.13;1.52;;;20.40;47.50;;;;;;4997182;28;20056;-62
2022/04/07 05:49:40;;;;;;;2.60;1.17;;;20.40;47.50;;;;;;4993713;28;20038;-61
2022/04/07 05:52:06;;;;;;;3.85;1.33;;;20.40;47.40;;;;;;4992903;28;20081;-61
2022/04/07 05:54:32;;;;;;;4.30;1.33;;;20.40;47.30;;;;;;4993896;28;20093;-62
2022/04/07 05:56:58;;;;;;;2.08;1.10;;;20.40;47.30;;;;;;4995037;28;20364;-61
2022/04/07 05:59:24;;;;;;;2.22;1.25;;;20.40;47.20;;;;;;4994451;28;20050;-62
2022/04/07 06:01:50;;;;;;;2.10;1.02;;;20.40;47.10;;;;;;4996606;28;20060;-62
2022/04/07 06:04:16;;;;;;;2.88;1.05;;;20.40;47.00;;;;;;4992853;28;20050;-62
2022/04/07 06:06:41;;;;;;;2.40;1.00;;;20.40;46.80;;;;;;4994448;28;20046;-61
2022/04/07 06:09:07;;;;;;;2.00;0.85;;;20.40;46.70;;;;;;4996258;28;20049;-61
2022/04/07 06:11:33;;;;;;;3.17;1.20;;;20.40;46.50;;;;;;4991318;28;20053;-62
2022/04/07 06:13:58;;;;;;;3.33;1.30;;;20.40;46.50;;;;;;4990957;28;20119;-64
2022/04/07 06:16:24;;;;;;;2.45;0.85;;;20.40;46.40;;;;;;4991251;28;20103;-61
2022/04/07 06:18:51;;;;;;;1.90;1.00;;;20.40;46.40;;;;;;4994149;28;20188;-63
2022/04/07 06:21:17;;;;;;;1.98;0.82;;;20.40;46.50;;;;;;4995100;28;20061;-65
2022/04/07 06:23:42;;;;;;;3.10;1.00;;;20.40;46.30;;;;;;4996656;28;20091;-65
2022/04/07 06:26:08;;;;;;;2.00;1.00;;;20.40;46.30;;;;;;4996611;28;20462;-65
2022/04/07 06:28:34;;;;;;;0.95;0.60;;;20.40;46.20;;;;;;4993856;28;20618;-63
2022/04/07 06:30:59;;;;;;;2.70;0.60;;;20.40;46.00;;;;;;4977119;28;20570;-61
2022/04/07 06:33:25;;;;;;;1.65;0.60;;;20.40;46.00;;;;;;4995244;28;20057;-62
2022/04/07 06:35:51;;;;;;;2.55;0.80;;;20.40;46.10;;;;;;4996126;28;20050;-62
2022/04/07 06:38:17;;;;;;;1.95;0.70;;;20.50;46.10;;;;;;4996202;28;20371;-62
2022/04/07 06:40:43;;;;;;;2.83;0.80;;;20.50;46.00;;;;;;4994567;28;20065;-61
2022/04/07 06:43:08;;;;;;;2.65;0.80;;;20.50;46.00;;;;;;4996785;28;20054;-61
2022/04/07 06:45:34;;;;;;;2.50;0.60;;;20.50;45.80;;;;;;4992396;28;20058;-61
2022/04/07 06:48:00;;;;;;;2.90;0.90;;;20.50;45.70;;;;;;4979042;28;20329;-62
2022/04/07 06:50:26;;;;;;;1.65;0.63;;;20.50;45.60;;;;;;4996216;28;20065;-62
2022/04/07 06:52:52;;;;;;;2.10;0.60;;;20.50;45.60;;;;;;4980312;28;20045;-62
2022/04/07 06:55:18;;;;;;;2.20;0.80;;;20.50;45.50;;;;;;5001886;28;20050;-61
2022/04/07 06:57:51;;;;;;;1.33;0.60;;;20.50;45.40;;;;;;4994758;28;20053;-62
2022/04/07 07:00:18;;;;;;;2.38;0.70;;;20.50;45.30;;;;;;4997710;28;20061;-63
2022/04/07 07:02:45;;;;;;;1.77;0.70;;;20.50;45.20;;;;;;4997175;28;20552;-62
2022/04/07 07:05:11;;;;;;;2.45;0.90;;;20.50;45.20;;;;;;4996931;28;20064;-63
2022/04/07 07:07:36;;;;;;;1.00;0.70;;;20.50;45.10;;;;;;4994157;28;20054;-61
2022/04/07 07:10:02;;;;;;;2.45;0.70;;;20.40;45.00;;;;;;4996712;28;20048;-61
2022/04/07 07:12:28;;;;;;;1.50;0.55;;;20.40;45.00;;;;;;4996499;28;20193;-62
2022/04/07 07:14:54;;;;;;;1.20;0.47;;;20.40;44.90;;;;;;4994853;28;20492;-60
2022/04/07 07:17:19;;;;;;;1.65;0.50;;;20.40;45.00;;;;;;4997854;28;20057;-61
2022/04/07 07:19:45;;;;;;;1.15;0.60;;;20.40;44.90;;;;;;4995852;28;20417;-61
2022/04/07 07:22:10;;;;;;;2.03;0.50;;;20.40;44.90;;;;;;4997109;28;20536;-62
2022/04/07 07:24:36;;;;;;;1.85;0.50;;;20.40;44.90;;;;;;4997347;28;20058;-59
2022/04/07 07:27:01;;;;;;;2.42;0.50;;;20.40;44.80;;;;;;4994459;28;20261;-60
2022/04/07 07:29:27;;;;;;;1.08;0.60;;;20.40;44.70;;;;;;4994165;28;20150;-61
2022/04/07 07:31:53;;;;;;;0.80;0.45;;;20.30;44.60;;;;;;4980590;28;20073;-62
2022/04/07 07:34:18;;;;;;;7.15;0.80;;;20.30;44.60;;;;;;4979843;28;20038;-61
2022/04/07 07:36:44;;;;;;;2.10;0.80;;;20.30;44.70;;;;;;4995586;28;20072;-61
2022/04/07 07:39:10;;;;;;;1.80;0.47;;;20.30;44.70;;;;;;4996991;28;20049;-62
2022/04/07 07:41:38;;;;;;;4.93;0.70;;;20.40;44.60;;;;;;4997753;28;20089;-62
2022/04/07 07:44:04;;;;;;;2.85;0.52;;;20.40;44.70;;;;;;4977682;28;20441;-63
2022/04/07 07:46:30;;;;;;;1.92;0.85;;;20.30;44.70;;;;;;4979063;28;20054;-64
2022/04/07 07:48:56;;;;;;;1.85;0.40;;;20.40;44.70;;;;;;4980254;28;20465;-61
2022/04/07 07:51:22;;;;;;;1.45;0.60;;;20.40;44.80;;;;;;4993431;28;20050;-63
2022/04/07 07:53:48;;;;;;;0.93;0.57;;;20.40;44.80;;;;;;5009869;28;20552;-62
2022/04/07 07:56:13;;;;;;;1.67;0.57;;;20.40;44.90;;;;;;4997115;28;20057;-60
2022/04/07 07:58:39;;;;;;;1.45;0.70;;;20.40;44.80;;;;;;4978761;28;20493;-60
2022/04/07 08:01:04;;;;;;;1.42;0.60;;;20.40;44.80;;;;;;4977925;28;20077;-61
2022/04/07 08:03:30;;;;;;;2.72;0.57;;;20.40;44.60;;;;;;4997298;28;20049;-62
2022/04/07 08:05:56;;;;;;;1.95;0.57;;;20.40;44.60;;;;;;4993791;28;20553;-60
2022/04/07 08:08:21;;;;;;;1.08;0.45;;;20.40;44.60;;;;;;4993120;28;20486;-62
2022/04/07 08:10:47;;;;;;;1.95;0.45;;;20.40;44.50;;;;;;4981186;28;20054;-61
2022/04/07 08:13:13;;;;;;;2.15;0.45;;;20.40;44.50;;;;;;4997668;28;20444;-61
2022/04/07 08:15:38;;;;;;;0.73;0.50;;;20.50;44.50;;;;;;4995837;28;20042;-61
2022/04/07 08:18:04;;;;;;;3.38;0.77;;;20.50;44.50;;;;;;4994097;28;20133;-61
2022/04/07 08:20:30;;;;;;;1.73;0.40;;;20.50;44.50;;;;;;4995859;28;20046;-60
2022/04/07 08:22:55;;;;;;;1.88;0.73;;;20.50;44.60;;;;;;4995123;28;20140;-61
2022/04/07 08:25:21;;;;;;;1.83;0.60;;;20.50;44.60;;;;;;4994444;28;20045;-60
2022/04/07 08:27:46;;;;;;;1.77;0.60;;;20.50;44.50;;;;;;4994410;28;20049;-61
2022/04/07 08:30:12;;;;;;;1.13;0.70;;;20.50;44.50;;;;;;4994231;28;20128;-61
2022/04/07 08:32:38;;;;;;;1.23;0.50;;;20.50;44.40;;;;;;4996688;28;20096;-61
2022/04/07 08:35:04;;;;;;;1.75;0.40;;;20.50;44.40;;;;;;4995398;28;20057;-62
2022/04/07 08:37:30;;;;;;;1.95;0.50;;;20.50;44.40;;;;;;4992072;28;20072;-62
2022/04/07 08:39:55;;;;;;;1.67;0.40;;;20.50;44.30;;;;;;4985518;28;20101;-64
2022/04/07 08:42:26;;;;;;;1.70;0.47;;;20.50;44.30;;;;;;4997093;28;20054;-61
2022/04/07 08:44:52;;;;;;;1.42;0.60;;;20.60;44.40;;;;;;4994742;28;20058;-61
2022/04/07 08:47:20;;;;;;;1.17;0.55;;;20.60;44.50;;;;;;4997695;28;20050;-59
2022/04/07 08:49:48;;;;;;;1.63;0.70;;;20.60;44.50;;;;;;4980158;28;20056;-60
2022/04/07 08:52:15;;;;;;;1.85;0.68;;;20.60;44.40;;;;;;4994944;28;20149;-61
2022/04/07 08:54:42;;;;;;;1.13;0.50;;;20.60;44.40;;;;;;4995612;28;20145;-62
2022/04/07 08:57:08;;;;;;;4.82;0.65;;;20.60;44.50;;;;;;4993523;28;20060;-62
2022/04/07 08:59:34;;;;;;;0.65;0.40;;;20.60;44.50;;;;;;4992154;28;20084;-61
2022/04/07 09:02:04;;;;;;;1.02;0.40;;;20.70;44.50;;;;;;4992101;28;20046;-61
2022/04/07 09:04:31;;;;;;;0.60;0.30;;;20.70;44.40;;;;;;4994611;28;20047;-61
2022/04/07 09:06:58;;;;;;;3.72;0.60;;;20.70;44.50;;;;;;4993555;28;20501;-62
2022/04/07 09:09:24;;;;;;;1.60;0.63;;;20.70;44.60;;;;;;4995781;28;20054;-62
2022/04/07 09:11:55;;;;;;;1.67;0.70;;;20.70;44.70;;;;;;4993718;28;20464;-62
2022/04/07 09:14:21;;;;;;;1.88;0.68;;;20.70;45.50;;;;;;4992827;28;20077;-61
2022/04/07 09:16:53;;;;;;;1.30;0.70;;;20.70;44.80;;;;;;4997516;28;20046;-61
2022/04/07 09:19:21;;;;;;;2.55;0.75;;;20.70;44.80;;;;;;4994301;28;20058;-61
2022/04/07 09:21:47;;;;;;;0.82;0.60;;;20.70;44.90;;;;;;4992051;28;20057;-61
2022/04/07 09:24:12;;;;;;;1.30;0.70;;;20.70;44.90;;;;;;4993245;28;20050;-60
2022/04/07 09:26:43;;;;;;;2.65;0.75;;;20.70;45.10;;;;;;4993447;28;20459;-61
2022/04/07 09:29:14;;;;;;;2.70;0.90;;;20.70;45.20;;;;;;4992029;28;20065;-62
2022/04/07 09:31:50;;;;;;;1.33;0.70;;;20.80;45.30;;;;;;4990908;28;20121;-63
2022/04/07 09:34:29;;;;;;;3.00;0.68;;;20.80;45.30;;;;;;4991671;28;20499;-60
2022/04/07 09:37:05;;;;;;;2.10;0.70;;;20.80;45.30;;;;;;4977937;28;20344;-61
2022/04/07 09:39:33;;;;;;;3.00;0.70;;;20.80;45.20;;;;;;4994580;28;20058;-62
2022/04/07 09:42:20;;;;;;;1.17;0.70;;;20.80;45.30;;;;;;4995502;28;20046;-61
2022/04/07 09:44:56;;;;;;;2.35;0.75;;;20.80;45.20;;;;;;4993547;28;20062;-61
2022/04/07 09:47:22;;;;;;;1.60;0.60;;;20.80;45.30;;;;;;5000806;28;20107;-62
2022/04/07 09:49:48;;;;;;;2.22;0.80;;;20.80;45.30;;;;;;4992889;28;20061;-62
2022/04/07 09:52:19;;;;;;;2.15;0.70;;;20.90;45.40;;;;;;4993072;28;20510;-62
2022/04/07 09:54:49;;;;;;;2.20;1.02;;;20.90;45.50;;;;;;4991318;28;20046;-62
2022/04/07 09:57:15;;;;;;;2.40;0.95;;;20.90;45.40;;;;;;4989748;28;20550;-61
2022/04/07 09:59:42;;;;;;;2.90;0.77;;;20.90;45.40;;;;;;4990735;28;20563;-62
2022/04/07 10:02:08;;;;;;;1.50;0.98;;;20.90;45.30;;;;;;4994196;28;20068;-61
2022/04/07 10:04:34;;;;;;;2.53;0.65;;;20.90;45.40;;;;;;4992181;28;20058;-61
2022/04/07 10:07:02;;;;;;;2.45;0.95;;;20.90;45.30;;;;;;4991117;28;20050;-61
2022/04/07 10:09:28;;;;;;;4.70;1.00;;;20.90;45.30;;;;;;4994024;28;20042;-60
2022/04/07 10:11:54;;;;;;;3.47;1.08;;;20.90;45.30;;;;;;4990068;28;20053;-61
2022/04/07 10:14:23;;;;;;;3.78;0.80;;;20.90;45.30;;;;;;4991922;28;20132;-60
2022/04/07 10:16:48;;;;;;;2.55;0.85;;;20.90;45.20;;;;;;4992658;28;20054;-61
2022/04/07 10:19:53;;;;;;;2.38;0.80;;;21.00;45.20;;;;;;4991025;28;20050;-62
2022/04/07 10:22:47;;;;;;;2.60;0.98;;;21.00;45.20;;;;;;4985930;28;20141;-61
2022/04/07 10:25:14;;;;;;;1.65;0.73;;;21.00;45.10;;;;;;4993816;28;20140;-62
2022/04/07 10:27:45;;;;;;;2.33;0.95;;;20.90;45.10;;;;;;4993609;28;20486;-62
2022/04/07 10:30:12;;;;;;;3.55;1.10;;;21.00;45.10;;;;;;4995271;28;20078;-61
2022/04/07 10:32:45;;;;;;;3.88;0.88;;;21.00;45.00;;;;;;4993531;28;20133;-61
2022/04/07 10:35:31;;;;;;;4.43;1.00;;;21.00;45.00;;;;;;4995199;28;20385;-61
2022/04/07 10:37:58;;;;;;;3.20;0.95;;;21.00;45.00;;;;;;4993646;28;20062;-61
2022/04/07 10:40:51;;;;;;;3.75;1.15;;;21.00;44.90;;;;;;4993025;28;20081;-61
2022/04/07 10:43:19;;;;;;;3.70;1.30;;;21.00;44.80;;;;;;4994309;28;20054;-61
2022/04/07 10:46:05;;;;;;;5.72;1.30;;;21.00;45.50;;;;;;4994114;28;20108;-60
2022/04/07 10:48:58;;;;;;;3.88;1.13;;;21.00;44.90;;;;;;4995858;28;20137;-61
2022/04/07 10:51:45;;;;;;;4.45;1.67;;;21.00;44.30;;;;;;4995495;28;20468;-61
2022/04/07 10:54:12;;;;;;;3.72;1.63;;;21.00;44.00;;;;;;4992955;28;20038;-61
2022/04/07 10:56:39;;;;;;;5.97;1.70;;;21.00;43.90;;;;;;4994083;28;20129;-60
2022/04/07 10:59:22;;;;;;;3.53;1.10;;;20.90;43.40;;;;;;5009149;28;20437;-63
2022/04/07 11:02:06;;;;;;;5.53;1.92;;;20.90;43.10;;;;;;5007372;28;20085;-61
2022/04/07 11:04:33;;;;;;;4.22;1.50;;;20.90;43.20;;;;;;4995294;28;20104;-60
2022/04/07 11:07:04;;;;;;;4.78;1.67;;;20.90;43.30;;;;;;4995742;28;20227;-63
2022/04/07 11:09:42;;;;;;;6.20;1.67;;;20.90;43.10;;;;;;4996516;28;20054;-60
2022/04/07 11:12:10;;;;;;;5.47;1.65;;;21.00;43.00;;;;;;4992390;28;20053;-63
2022/04/07 11:14:35;;;;;;;7.78;1.67;;;20.90;43.00;;;;;;4996302;28;20047;-59
2022/04/07 11:17:05;;;;;;;3.65;1.83;;;20.90;43.00;;;;;;4996976;28;20486;-59
2022/04/07 11:19:58;;;;;;;7.32;1.50;;;21.00;43.10;;;;;;4996433;28;20133;-61
2022/04/07 11:22:57;;;;;;;7.97;1.40;;;21.00;42.90;;;;;;4996727;28;20050;-59
2022/04/07 11:25:30;;;;;;;5.00;1.80;;;21.00;43.00;;;;;;4995479;28;20050;-63
2022/04/07 11:28:07;;;;;;;5.80;1.73;;;21.00;43.10;;;;;;4994281;28;20049;-61
2022/04/07 11:30:37;;;;;;;4.47;1.50;;;21.00;43.10;;;;;;4992073;28;20045;-60
2022/04/07 11:33:18;;;;;;;7.30;1.65;;;21.00;43.10;;;;;;4992151;28;20410;-59
2022/04/07 11:36:05;;;;;;;5.13;1.60;;;21.00;43.10;;;;;;4996448;28;20041;-61
2022/04/07 11:38:47;;;;;;;5.40;1.60;;;21.00;43.20;;;;;;4996391;28;20034;-60
2022/04/07 11:41:17;;;;;;;6.65;1.20;;;21.00;43.10;;;;;;4998103;28;20044;-61
2022/04/07 11:43:45;;;;;;;7.13;1.77;;;21.00;43.10;;;;;;4994310;28;20528;-62
2022/04/07 11:46:13;;;;;;;5.50;1.83;;;21.00;43.00;;;;;;4997773;28;20106;-60
2022/04/07 11:48:40;;;;;;;5.57;1.63;;;21.00;42.80;;;;;;4997946;28;20046;-61
2022/04/07 11:51:11;;;;;;;6.43;1.83;;;21.00;42.60;;;;;;4992926;28;20050;-61
2022/04/07 11:53:38;;;;;;;;;;;21.00;42.50;;;;;;4998506;28;20149;-60
2022/04/07 11:56:17;;;;;;;5.10;1.98;;;21.00;42.20;;;;;;4996458;28;20401;-60
2022/04/07 11:58:56;;;;;;;5.90;1.85;;;21.00;42.30;;;;;;4994552;28;20438;-60
2022/04/07 12:01:23;;;;;;;7.45;2.15;;;21.00;42.20;;;;;;4993675;28;20049;-60
2022/04/07 12:04:01;;;;;;;9.63;2.22;;;21.00;42.20;;;;;;4993242;28;20082;-61
2022/04/07 12:06:34;;;;;;;4.90;1.55;;;21.00;42.10;;;;;;4992940;28;20064;-64
2022/04/07 12:09:02;;;;;;;4.20;1.80;;;21.00;42.10;;;;;;4994066;28;20073;-61
2022/04/07 12:11:32;;;;;;;5.57;1.67;;;21.00;42.00;;;;;;4992700;28;20406;-60
2022/04/07 12:13:58;;;;;;;4.93;1.60;;;21.00;42.00;;;;;;4991646;28;20037;-62
2022/04/07 12:16:25;;;;;;;4.55;1.90;;;21.00;42.00;;;;;;4980985;28;20058;-62
2022/04/07 12:19:07;;;;;;;5.32;1.65;;;21.00;41.90;;;;;;4988725;28;20035;-62
2022/04/07 12:21:58;;;;;;;4.57;1.77;;;21.00;41.70;;;;;;4993137;28;20064;-59
2022/04/07 12:24:28;;;;;;;5.95;2.00;;;21.00;41.60;;;;;;4992973;28;20443;-59
2022/04/07 12:27:01;;;;;;;4.88;2.10;;;21.00;41.60;;;;;;4992794;28;20042;-59
2022/04/07 12:29:31;;;;;;;3.47;1.42;;;21.00;41.40;;;;;;4991404;28;20057;-59
2022/04/07 12:32:01;;;;;;;5.82;2.03;;;21.00;41.40;;;;;;4991652;28;20099;-60
2022/04/07 12:34:27;;;;;;;3.63;1.50;;;21.00;41.30;;;;;;4993610;28;20038;-59
2022/04/07 12:36:53;;;;;;;3.83;1.73;;;20.90;41.20;;;;;;4992040;28;20046;-60
2022/04/07 12:39:20;;;;;;;6.10;1.73;;;20.90;41.00;;;;;;4992216;28;20445;-59
2022/04/07 12:41:50;;;;;;;5.07;1.45;;;20.90;40.80;;;;;;4990999;28;20045;-59
2022/04/07 12:44:22;;;;;;;4.03;1.53;;;20.90;40.90;;;;;;4993295;28;20045;-60
2022/04/07 12:46:56;;;;;;;5.50;1.63;;;20.90;40.80;;;;;;4992287;28;20312;-58
2022/04/07 12:49:33;;;;;;;5.53;1.90;;;20.90;40.70;;;;;;4993047;28;20156;-59
2022/04/07 12:52:07;;;;;;;4.72;1.83;;;20.90;40.60;;;;;;4991246;28;20057;-58